Time;durP1;ratioP1;P1;durP2;ratioP2;P2;SDS_P1;SDS_P2;PMS_P1;PMS_P2;Temp;Humidity;BMP_temperature;BMP_pressure;BME280_temperature;BME280_humidity;BME280_pressure;Samples;Min_cycle;Max_cycle;Signal;HPM_P1;HPM_P2
2023/07/09 00:01:36;;;;;;;;;;;;;;;;;;5066015;28;19943;-62
2023/07/09 00:04:02;;;;;;;;;;;;;;;;;;5069755;28;20270;-62
2023/07/09 00:06:28;;;;;;;;;;;;;;;;;;5063263;28;19925;-62
2023/07/09 00:08:54;;;;;;;;;;;;;;;;;;5068625;28;19929;-62
2023/07/09 00:11:20;;;;;;;;;;;;;;;;;;5063330;28;20356;-61
2023/07/09 00:13:46;;;;;;;;;;;;;;;;;;5071568;28;19927;-61
2023/07/09 00:16:12;;;;;;;;;;;;;;;;;;5069159;28;19924;-61
2023/07/09 00:18:38;;;;;;;;;;;;;;;;;;5069036;28;20321;-61
2023/07/09 00:21:04;;;;;;;;;;;;;;;;;;5077677;22;19920;-63
2023/07/09 00:23:29;;;;;;;;;;;;;;;;;;5030723;28;19921;-63
2023/07/09 00:25:55;;;;;;;;;;;;;;;;;;5018726;28;19932;-64
2023/07/09 00:28:21;;;;;;;;;;;;;;;;;;5027897;28;19925;-64
2023/07/09 00:30:47;;;;;;;;;;;;;;;;;;5023779;28;19925;-64
2023/07/09 00:33:16;;;;;;;;;;;;;;;;;;5027370;28;19921;-64
2023/07/09 00:35:42;;;;;;;;;;;;;;;;;;5024158;28;19975;-64
2023/07/09 00:38:08;;;;;;;;;;;;;;;;;;5031867;28;19929;-64
2023/07/09 00:40:33;;;;;;;;;;;;;;;;;;5028595;28;19928;-64
2023/07/09 00:42:59;;;;;;;;;;;;;;;;;;5040833;28;20337;-64
2023/07/09 00:45:25;;;;;;;;;;;;;;;;;;5031957;28;19958;-63
2023/07/09 00:47:51;;;;;;;;;;;;;;;;;;5031875;28;19948;-63
2023/07/09 00:50:17;;;;;;;;;;;;;;;;;;5022998;28;19984;-63
2023/07/09 00:52:45;;;;;;;;;;;;;;;;;;5021747;28;19929;-64
2023/07/09 00:55:11;;;;;;;;;;;;;;;;;;5028555;28;19928;-64
2023/07/09 00:57:38;;;;;;;;;;;;;;;;;;5028607;28;20083;-64
2023/07/09 01:00:10;;;;;;;;;;;;;;;;;;5028273;28;20022;-64
2023/07/09 01:02:36;;;;;;;;;;;;;;;;;;5027400;28;19929;-64
2023/07/09 01:05:03;;;;;;;;;;;;;;;;;;5030308;28;19925;-64
2023/07/09 01:07:29;;;;;;;;;;;;;;;;;;5027982;28;20481;-64
2023/07/09 01:09:55;;;;;;;;;;;;;;;;;;5030177;28;19925;-64
2023/07/09 01:12:21;;;;;;;;;;;;;;;;;;5027587;28;19931;-64
2023/07/09 01:14:48;;;;;;;;;;;;;;;;;;5029956;28;19925;-64
2023/07/09 01:17:14;;;;;;;;;;;;;;;;;;5027454;28;19925;-64
2023/07/09 01:19:42;;;;;;;;;;;;;;;;;;5023316;28;19963;-64
2023/07/09 01:22:11;;;;;;;;;;;;;;;;;;5029188;28;19936;-64
2023/07/09 01:24:37;;;;;;;;;;;;;;;;;;5016704;28;20397;-64
2023/07/09 01:27:03;;;;;;;;;;;;;;;;;;5031288;28;19925;-64
2023/07/09 01:29:29;;;;;;;;;;;;;;;;;;5028809;28;19970;-64
2023/07/09 01:31:56;;;;;;;;;;;;;;;;;;5030309;28;20366;-64
2023/07/09 01:34:21;;;;;;;;;;;;;;;;;;5028291;28;19921;-64
2023/07/09 01:36:47;;;;;;;;;;;;;;;;;;5029088;28;20586;-65
2023/07/09 01:39:13;;;;;;;;;;;;;;;;;;5030515;28;19921;-64
2023/07/09 01:41:39;;;;;;;;;;;;;;;;;;5031051;28;19971;-65
2023/07/09 01:44:07;;;;;;;;;;;;;;;;;;5031041;28;20617;-65
2023/07/09 01:46:32;;;;;;;;;;;;;;;;;;5030428;28;19921;-65
2023/07/09 01:48:58;;;;;;;;;;;;;;;;;;5031189;28;19948;-65
2023/07/09 01:51:25;;;;;;;;;;;;;;;;;;5030167;28;19926;-65
2023/07/09 01:53:53;;;;;;;;;;;;;;;;;;5022806;28;20355;-64
2023/07/09 01:56:19;;;;;;;;;;;;;;;;;;5021752;28;19970;-65
2023/07/09 01:58:45;;;;;;;;;;;;;;;;;;5033093;28;19964;-65
2023/07/09 02:01:11;;;;;;;;;;;;;;;;;;5031646;28;19925;-65
2023/07/09 02:03:37;;;;;;;;;;;;;;;;;;5031416;28;19928;-65
2023/07/09 02:06:09;;;;;;;;;;;;;;;;;;5032358;28;20292;-65
2023/07/09 02:08:35;;;;;;;;;;;;;;;;;;5032877;28;19921;-65
2023/07/09 02:11:01;;;;;;;;;;;;;;;;;;5028972;28;19932;-65
2023/07/09 02:13:27;;;;;;;;;;;;;;;;;;5026315;28;19921;-65
2023/07/09 02:15:53;;;;;;;;;;;;;;;;;;5028244;28;20345;-64
2023/07/09 02:18:19;;;;;;;;;;;;;;;;;;5030838;28;19960;-65
2023/07/09 02:20:45;;;;;;;;;;;;;;;;;;5031533;28;19925;-65
2023/07/09 02:23:10;;;;;;;;;;;;;;;;;;5032764;28;19931;-64
2023/07/09 02:25:37;;;;;;;;;;;;;;;;;;5015605;28;19925;-65
2023/07/09 02:28:03;;;;;;;;;;;;;;;;;;5024369;28;19969;-65
2023/07/09 02:30:29;;;;;;;;;;;;;;;;;;5032451;28;19972;-65
2023/07/09 02:32:54;;;;;;;;;;;;;;;;;;5034546;28;20251;-65
2023/07/09 02:35:20;;;;;;;;;;;;;;;;;;5033149;28;19921;-65
2023/07/09 02:37:46;;;;;;;;;;;;;;;;;;5033896;28;19924;-65
2023/07/09 02:40:12;;;;;;;;;;;;;;;;;;5034059;28;20378;-65
2023/07/09 02:42:38;;;;;;;;;;;;;;;;;;5034449;28;19925;-68
2023/07/09 02:45:04;;;;;;;;;;;;;;;;;;5023278;28;19921;-64
2023/07/09 02:47:30;;;;;;;;;;;;;;;;;;5032378;28;19971;-65
2023/07/09 02:49:56;;;;;;;;;;;;;;;;;;5033337;28;19925;-64
2023/07/09 02:52:21;;;;;;;;;;;;;;;;;;5029510;28;19921;-65
2023/07/09 02:54:47;;;;;;;;;;;;;;;;;;5026659;28;19936;-65
2023/07/09 02:57:13;;;;;;;;;;;;;;;;;;5033348;28;20497;-65
2023/07/09 02:59:39;;;;;;;;;;;;;;;;;;5032037;28;20287;-64
2023/07/09 03:02:05;;;;;;;;;;;;;;;;;;5025213;28;19936;-64
2023/07/09 03:04:31;;;;;;;;;;;;;;;;;;5033259;28;19921;-64
2023/07/09 03:06:57;;;;;;;;;;;;;;;;;;5031472;28;20390;-64
2023/07/09 03:09:23;;;;;;;;;;;;;;;;;;5029309;28;19972;-64
2023/07/09 03:11:49;;;;;;;;;;;;;;;;;;5031755;28;19968;-64
2023/07/09 03:14:14;;;;;;;;;;;;;;;;;;5031816;28;20504;-64
2023/07/09 03:16:40;;;;;;;;;;;;;;;;;;5031691;28;19921;-64
2023/07/09 03:19:06;;;;;;;;;;;;;;;;;;5026240;28;19925;-65
2023/07/09 03:21:32;;;;;;;;;;;;;;;;;;5029508;28;19978;-64
2023/07/09 03:23:58;;;;;;;;;;;;;;;;;;5030886;28;20376;-64
2023/07/09 03:26:25;;;;;;;;;;;;;;;;;;5011847;28;19925;-65
2023/07/09 03:28:51;;;;;;;;;;;;;;;;;;5024582;28;19925;-65
2023/07/09 03:31:17;;;;;;;;;;;;;;;;;;5029264;28;19921;-65
2023/07/09 03:33:43;;;;;;;;;;;;;;;;;;5031052;28;19932;-65
2023/07/09 03:36:09;;;;;;;;;;;;;;;;;;5027107;28;19932;-65
2023/07/09 03:38:35;;;;;;;;;;;;;;;;;;5028966;28;19925;-65
2023/07/09 03:41:00;;;;;;;;;;;;;;;;;;5028018;28;19932;-65
2023/07/09 03:43:26;;;;;;;;;;;;;;;;;;5029838;28;19925;-65
2023/07/09 03:45:52;;;;;;;;;;;;;;;;;;5030716;28;19921;-65
2023/07/09 03:48:18;;;;;;;;;;;;;;;;;;5030772;28;19925;-65
2023/07/09 03:50:44;;;;;;;;;;;;;;;;;;5031120;28;19932;-64
2023/07/09 03:53:10;;;;;;;;;;;;;;;;;;5024150;28;19933;-64
2023/07/09 03:55:37;;;;;;;;;;;;;;;;;;5027081;28;20501;-65
2023/07/09 03:58:03;;;;;;;;;;;;;;;;;;5028745;28;19921;-65
2023/07/09 04:00:29;;;;;;;;;;;;;;;;;;5030188;28;20277;-63
2023/07/09 04:02:56;;;;;;;;;;;;;;;;;;5030753;28;19928;-62
2023/07/09 04:05:22;;;;;;;;;;;;;;;;;;5030535;28;19925;-65
2023/07/09 04:07:48;;;;;;;;;;;;;;;;;;5027804;28;20293;-65
2023/07/09 04:10:14;;;;;;;;;;;;;;;;;;5026177;28;19925;-65
2023/07/09 04:12:40;;;;;;;;;;;;;;;;;;5012540;28;19924;-65
2023/07/09 04:15:06;;;;;;;;;;;;;;;;;;5028736;28;19931;-65
2023/07/09 04:17:31;;;;;;;;;;;;;;;;;;5025695;28;19932;-64
2023/07/09 04:19:57;;;;;;;;;;;;;;;;;;5021294;28;19921;-64
2023/07/09 04:22:23;;;;;;;;;;;;;;;;;;5029432;28;19972;-64
2023/07/09 04:24:50;;;;;;;;;;;;;;;;;;5031134;28;19940;-65
2023/07/09 04:27:16;;;;;;;;;;;;;;;;;;5017402;28;19921;-65
2023/07/09 04:29:42;;;;;;;;;;;;;;;;;;5028395;28;19971;-65
2023/07/09 04:32:08;;;;;;;;;;;;;;;;;;5029047;28;20524;-65
2023/07/09 04:34:33;;;;;;;;;;;;;;;;;;5029635;28;19925;-65
2023/07/09 04:36:59;;;;;;;;;;;;;;;;;;5029401;28;19960;-65
2023/07/09 04:39:25;;;;;;;;;;;;;;;;;;5031398;28;20459;-65
2023/07/09 04:41:51;;;;;;;;;;;;;;;;;;5030964;28;20023;-65
2023/07/09 04:44:17;;;;;;;;;;;;;;;;;;5028775;28;19972;-65
2023/07/09 04:46:43;;;;;;;;;;;;;;;;;;5031013;28;19921;-65
2023/07/09 04:49:12;;;;;;;;;;;;;;;;;;5028996;28;20372;-65
2023/07/09 04:51:38;;;;;;;;;;;;;;;;;;5028936;28;19989;-65
2023/07/09 04:54:04;;;;;;;;;;;;;;;;;;5027856;28;20011;-65
2023/07/09 04:56:29;;;;;;;;;;;;;;;;;;5021520;28;19975;-64
2023/07/09 04:58:55;;;;;;;;;;;;;;;;;;5030819;28;19921;-65
2023/07/09 05:01:21;;;;;;;;;;;;;;;;;;5027797;28;19921;-65
2023/07/09 05:03:47;;;;;;;;;;;;;;;;;;5029146;28;19925;-65
2023/07/09 05:06:13;;;;;;;;;;;;;;;;;;5031012;28;19986;-65
2023/07/09 05:08:39;;;;;;;;;;;;;;;;;;5029099;28;20299;-65
2023/07/09 05:11:05;;;;;;;;;;;;;;;;;;5031851;28;19928;-65
2023/07/09 05:13:31;;;;;;;;;;;;;;;;;;5030384;28;19925;-65
2023/07/09 05:15:57;;;;;;;;;;;;;;;;;;5026513;28;19956;-65
2023/07/09 05:18:23;;;;;;;;;;;;;;;;;;5025306;28;19928;-65
2023/07/09 05:20:49;;;;;;;;;;;;;;;;;;5029234;28;19948;-65
2023/07/09 05:23:15;;;;;;;;;;;;;;;;;;5029122;28;20383;-65
2023/07/09 05:25:41;;;;;;;;;;;;;;;;;;5027051;28;19947;-65
2023/07/09 05:28:07;;;;;;;;;;;;;;;;;;5025021;28;19969;-65
2023/07/09 05:30:33;;;;;;;;;;;;;;;;;;5029270;28;19929;-65
2023/07/09 05:32:59;;;;;;;;;;;;;;;;;;5031198;28;19927;-65
2023/07/09 05:35:25;;;;;;;;;;;;;;;;;;5026746;28;20366;-65
2023/07/09 05:37:51;;;;;;;;;;;;;;;;;;5031453;28;19955;-65
2023/07/09 05:40:16;;;;;;;;;;;;;;;;;;5031427;28;19929;-65
2023/07/09 05:42:42;;;;;;;;;;;;;;;;;;5030872;28;20001;-65
2023/07/09 05:45:08;;;;;;;;;;;;;;;;;;5030578;28;19964;-65
2023/07/09 05:47:34;;;;;;;;;;;;;;;;;;5028755;28;20609;-65
2023/07/09 05:50:00;;;;;;;;;;;;;;;;;;5028687;28;19929;-65
2023/07/09 05:52:28;;;;;;;;;;;;;;;;;;5020303;28;19921;-65
2023/07/09 05:54:54;;;;;;;;;;;;;;;;;;5027732;28;19921;-65
2023/07/09 05:57:21;;;;;;;;;;;;;;;;;;5034666;28;19922;-65
2023/07/09 05:59:46;;;;;;;;;;;;;;;;;;5026006;28;19956;-65
2023/07/09 06:02:12;;;;;;;;;;;;;;;;;;5029149;28;19959;-65
2023/07/09 06:04:38;;;;;;;;;;;;;;;;;;5028625;28;19921;-65
2023/07/09 06:07:04;;;;;;;;;;;;;;;;;;5030069;28;19921;-65
2023/07/09 06:09:31;;;;;;;;;;;;;;;;;;5024803;28;19936;-65
2023/07/09 06:11:57;;;;;;;;;;;;;;;;;;5029558;28;19925;-65
2023/07/09 06:14:23;;;;;;;;;;;;;;;;;;5029994;28;19966;-65
2023/07/09 06:16:49;;;;;;;;;;;;;;;;;;5030829;28;19929;-65
2023/07/09 06:19:14;;;;;;;;;;;;;;;;;;5023820;28;19921;-65
2023/07/09 06:21:40;;;;;;;;;;;;;;;;;;5044447;22;20390;-65
2023/07/09 06:24:07;;;;;;;;;;;;;;;;;;5086463;28;19927;-65
2023/07/09 06:26:32;;;;;;;;;;;;;;;;;;5082337;28;19927;-65
2023/07/09 06:28:58;;;;;;;;;;;;;;;;;;5081082;28;19928;-65
2023/07/09 06:31:24;;;;;;;;;;;;;;;;;;5085168;28;20277;-66
2023/07/09 06:33:50;;;;;;;;;;;;;;;;;;5080480;28;19965;-65
2023/07/09 06:36:16;;;;;;;;;;;;;;;;;;5082547;28;19925;-65
2023/07/09 06:38:42;;;;;;;;;;;;;;;;;;5089852;28;19927;-65
2023/07/09 06:41:08;;;;;;;;;;;;;;;;;;5088864;28;20365;-65
2023/07/09 06:43:34;;;;;;;;;;;;;;;;;;5084467;28;20019;-66
2023/07/09 06:46:00;;;;;;;;;;;;;;;;;;5086721;28;19928;-66
2023/07/09 06:48:26;;;;;;;;;;;;;;;;;;5090842;28;19987;-66
2023/07/09 06:50:51;;;;;;;;;;;;;;;;;;5088007;28;19931;-66
2023/07/09 06:53:17;;;;;;;;;;;;;;;;;;5078280;28;19920;-66
2023/07/09 06:55:43;;;;;;;;;;;;;;;;;;5091294;28;19931;-65
2023/07/09 06:58:09;;;;;;;;;;;;;;;;;;5085563;28;20409;-66
2023/07/09 07:00:35;;;;;;;;;;;;;;;;;;5086080;28;19932;-66
2023/07/09 07:03:01;;;;;;;;;;;;;;;;;;5086398;28;19920;-65
2023/07/09 07:05:27;;;;;;;;;;;;;;;;;;5082717;28;20292;-66
2023/07/09 07:07:53;;;;;;;;;;;;;;;;;;5088049;28;19928;-65
2023/07/09 07:10:19;;;;;;;;;;;;;;;;;;5088910;28;19936;-66
2023/07/09 07:12:45;;;;;;;;;;;;;;;;;;5088851;28;19961;-66
2023/07/09 07:15:11;;;;;;;;;;;;;;;;;;5090150;28;20385;-66
2023/07/09 07:17:37;;;;;;;;;;;;;;;;;;5084745;28;20024;-66
2023/07/09 07:20:03;;;;;;;;;;;;;;;;;;5088928;28;20322;-66
2023/07/09 07:22:29;;;;;;;;;;;;;;;;;;5087404;28;20536;-66
2023/07/09 07:24:55;;;;;;;;;;;;;;;;;;5082137;28;19924;-65
2023/07/09 07:27:21;;;;;;;;;;;;;;;;;;5080806;28;19927;-65
2023/07/09 07:29:47;;;;;;;;;;;;;;;;;;5085673;28;19932;-65
2023/07/09 07:32:13;;;;;;;;;;;;;;;;;;5086774;28;19931;-66
2023/07/09 07:34:39;;;;;;;;;;;;;;;;;;5084135;28;19935;-66
2023/07/09 07:37:05;;;;;;;;;;;;;;;;;;5088713;28;20407;-65
2023/07/09 07:39:31;;;;;;;;;;;;;;;;;;5088543;28;19921;-65
2023/07/09 07:41:57;;;;;;;;;;;;;;;;;;5092228;28;19924;-65
2023/07/09 07:44:23;;;;;;;;;;;;;;;;;;5091640;28;19920;-65
2023/07/09 07:46:49;;;;;;;;;;;;;;;;;;5090985;28;19970;-65
2023/07/09 07:49:14;;;;;;;;;;;;;;;;;;5086209;28;19928;-65
2023/07/09 07:51:41;;;;;;;;;;;;;;;;;;5087601;28;19924;-65
2023/07/09 07:54:09;;;;;;;;;;;;;;;;;;5091000;28;19951;-65
2023/07/09 07:56:35;;;;;;;;;;;;;;;;;;5085621;28;19931;-66
2023/07/09 07:59:01;;;;;;;;;;;;;;;;;;5088420;28;19946;-65
2023/07/09 08:01:27;;;;;;;;;;;;;;;;;;5088464;28;19924;-65
2023/07/09 08:03:53;;;;;;;;;;;;;;;;;;5080660;28;20027;-64
2023/07/09 08:06:19;;;;;;;;;;;;;;;;;;5067889;28;20014;-63
2023/07/09 08:08:45;;;;;;;;;;;;;;;;;;5086638;28;19931;-63
2023/07/09 08:11:11;;;;;;;;;;;;;;;;;;5085131;28;21951;-63
2023/07/09 08:13:38;;;;;;;;;;;;;;;;;;5085531;28;19963;-64
2023/07/09 08:16:04;;;;;;;;;;;;;;;;;;5085964;28;20395;-63
2023/07/09 08:18:29;;;;;;;;;;;;;;;;;;5082389;28;19950;-63
2023/07/09 08:20:55;;;;;;;;;;;;;;;;;;5081818;28;19920;-63
2023/07/09 08:23:21;;;;;;;;;;;;;;;;;;5077916;28;20062;-63
2023/07/09 08:25:47;;;;;;;;;;;;;;;;;;5088678;28;19978;-63
2023/07/09 08:28:13;;;;;;;;;;;;;;;;;;5085755;28;19924;-63
2023/07/09 08:30:39;;;;;;;;;;;;;;;;;;5087774;28;19980;-63
2023/07/09 08:33:05;;;;;;;;;;;;;;;;;;5089082;28;19928;-63
2023/07/09 08:35:32;;;;;;;;;;;;;;;;;;5085095;28;20010;-63
2023/07/09 08:37:58;;;;;;;;;;;;;;;;;;5088903;28;19927;-63
2023/07/09 08:40:24;;;;;;;;;;;;;;;;;;5092325;28;19920;-63
2023/07/09 08:42:49;;;;;;;;;;;;;;;;;;5086948;28;20045;-63
2023/07/09 08:45:16;;;;;;;;;;;;;;;;;;5082770;28;19966;-63
2023/07/09 08:47:41;;;;;;;;;;;;;;;;;;5083432;28;19920;-63
2023/07/09 08:50:07;;;;;;;;;;;;;;;;;;5085609;28;19935;-63
2023/07/09 08:52:33;;;;;;;;;;;;;;;;;;5083996;28;19959;-63
2023/07/09 08:54:59;;;;;;;;;;;;;;;;;;5077845;28;19963;-65
2023/07/09 08:57:25;;;;;;;;;;;;;;;;;;5065501;28;19936;-63
2023/07/09 08:59:51;;;;;;;;;;;;;;;;;;5083469;28;19924;-63
2023/07/09 09:02:17;;;;;;;;;;;;;;;;;;5086695;28;19924;-63
2023/07/09 09:04:43;;;;;;;;;;;;;;;;;;5086998;28;20006;-63
2023/07/09 09:07:09;;;;;;;;;;;;;;;;;;5088489;28;20019;-63
2023/07/09 09:09:34;;;;;;;;;;;;;;;;;;5089067;28;20514;-63
2023/07/09 09:12:00;;;;;;;;;;;;;;;;;;5091577;28;20030;-64
2023/07/09 09:14:26;;;;;;;;;;;;;;;;;;5090252;28;19920;-64
2023/07/09 09:16:52;;;;;;;;;;;;;;;;;;5086140;28;19966;-63
2023/07/09 09:19:18;;;;;;;;;;;;;;;;;;5090699;28;19924;-63
2023/07/09 09:21:44;;;;;;;;;;;;;;;;;;5083129;28;20098;-64
2023/07/09 09:24:10;;;;;;;;;;;;;;;;;;5087668;28;19928;-63
2023/07/09 09:26:36;;;;;;;;;;;;;;;;;;5087054;28;19927;-64
2023/07/09 09:29:02;;;;;;;;;;;;;;;;;;5069627;28;19931;-63
2023/07/09 09:31:28;;;;;;;;;;;;;;;;;;5088419;28;19924;-63
2023/07/09 09:33:54;;;;;;;;;;;;;;;;;;5089054;28;20500;-63
2023/07/09 09:36:20;;;;;;;;;;;;;;;;;;5080599;28;19965;-64
2023/07/09 09:38:46;;;;;;;;;;;;;;;;;;5086148;28;19973;-64
2023/07/09 09:41:12;;;;;;;;;;;;;;;;;;5071381;28;20015;-63
2023/07/09 09:43:38;;;;;;;;;;;;;;;;;;5080829;28;20002;-63
2023/07/09 09:46:03;;;;;;;;;;;;;;;;;;5083914;28;19921;-64
2023/07/09 09:48:29;;;;;;;;;;;;;;;;;;5081354;28;19935;-63
2023/07/09 09:51:00;;;;;;;;;;;;;;;;;;5083541;28;19928;-63
2023/07/09 09:53:26;;;;;;;;;;;;;;;;;;5072068;28;19924;-63
2023/07/09 09:55:52;;;;;;;;;;;;;;;;;;5089161;28;19931;-63
2023/07/09 09:58:18;;;;;;;;;;;;;;;;;;5088575;28;19920;-63
2023/07/09 10:00:44;;;;;;;;;;;;;;;;;;5083700;28;19920;-63
2023/07/09 10:03:10;;;;;;;;;;;;;;;;;;5075535;28;19973;-64
2023/07/09 10:05:36;;;;;;;;;;;;;;;;;;5083616;28;20356;-62
2023/07/09 10:08:02;;;;;;;;;;;;;;;;;;5087455;28;19920;-62
2023/07/09 10:10:28;;;;;;;;;;;;;;;;;;5091712;28;19979;-62
2023/07/09 10:12:53;;;;;;;;;;;;;;;;;;5094273;28;20363;-62
2023/07/09 10:15:19;;;;;;;;;;;;;;;;;;5094409;28;19924;-62
2023/07/09 10:17:45;;;;;;;;;;;;;;;;;;5093133;28;19920;-62
2023/07/09 10:20:11;;;;;;;;;;;;;;;;;;5092898;28;20361;-62
2023/07/09 10:22:37;;;;;;;;;;;;;;;;;;5091913;28;19928;-62
2023/07/09 10:25:03;;;;;;;;;;;;;;;;;;5093213;28;20265;-62
2023/07/09 10:27:30;;;;;;;;;;;;;;;;;;5092233;28;21210;-62
2023/07/09 10:29:56;;;;;;;;;;;;;;;;;;5094751;28;20014;-62
2023/07/09 10:32:22;;;;;;;;;;;;;;;;;;5090681;28;19920;-62
2023/07/09 10:34:48;;;;;;;;;;;;;;;;;;5094859;28;19927;-62
2023/07/09 10:37:14;;;;;;;;;;;;;;;;;;5089017;28;20235;-62
2023/07/09 10:39:40;;;;;;;;;;;;;;;;;;5105056;28;19924;-62
2023/07/09 10:42:06;;;;;;;;;;;;;;;;;;5090458;28;19966;-62
2023/07/09 10:44:32;;;;;;;;;;;;;;;;;;5093657;28;19920;-62
2023/07/09 10:46:58;;;;;;;;;;;;;;;;;;5088428;28;20058;-62
2023/07/09 10:49:24;;;;;;;;;;;;;;;;;;5091308;28;19947;-62
2023/07/09 10:51:49;;;;;;;;;;;;;;;;;;5092918;28;19949;-62
2023/07/09 10:54:15;;;;;;;;;;;;;;;;;;5092560;28;19926;-62
2023/07/09 10:56:41;;;;;;;;;;;;;;;;;;5091421;28;19924;-62
2023/07/09 10:59:08;;;;;;;;;;;;;;;;;;5094364;28;19970;-63
2023/07/09 11:01:34;;;;;;;;;;;;;;;;;;5083273;28;19920;-62
2023/07/09 11:04:00;;;;;;;;;;;;;;;;;;5087930;28;20018;-62
2023/07/09 11:06:26;;;;;;;;;;;;;;;;;;5089924;28;19927;-62
2023/07/09 11:08:52;;;;;;;;;;;;;;;;;;5089173;28;19920;-62
2023/07/09 11:11:18;;;;;;;;;;;;;;;;;;5087457;28;19962;-62
2023/07/09 11:13:44;;;;;;;;;;;;;;;;;;5091543;28;20361;-62
2023/07/09 11:16:09;;;;;;;;;;;;;;;;;;5091229;28;20001;-62
2023/07/09 11:18:35;;;;;;;;;;;;;;;;;;5090665;28;20402;-62
2023/07/09 11:21:01;;;;;;;;;;;;;;;;;;5090724;28;19924;-62
2023/07/09 11:23:27;;;;;;;;;;;;;;;;;;5091857;28;19967;-63
2023/07/09 11:25:53;;;;;;;;;;;;;;;;;;5090363;28;19928;-62
2023/07/09 11:28:19;;;;;;;;;;;;;;;;;;5089144;28;20389;-63
2023/07/09 11:30:45;;;;;;;;;;;;;;;;;;5083996;28;19931;-63
2023/07/09 11:33:11;;;;;;;;;;;;;;;;;;5091286;28;20250;-63
2023/07/09 11:35:37;;;;;;;;;;;;;;;;;;5087876;28;19963;-63
2023/07/09 11:38:04;;;;;;;;;;;;;;;;;;5086441;28;19932;-63
2023/07/09 11:40:30;;;;;;;;;;;;;;;;;;5091832;28;19931;-63
2023/07/09 11:42:56;;;;;;;;;;;;;;;;;;5090231;28;19920;-63
2023/07/09 11:45:25;;;;;;;;;;;;;;;;;;5086908;28;20876;-63
2023/07/09 11:47:51;;;;;;;;;;;;;;;;;;5089560;28;19925;-63
2023/07/09 11:50:17;;;;;;;;;;;;;;;;;;5092453;28;19931;-63
2023/07/09 11:52:42;;;;;;;;;;;;;;;;;;5090314;28;19920;-63
2023/07/09 11:55:08;;;;;;;;;;;;;;;;;;5085204;28;19924;-63
2023/07/09 11:57:34;;;;;;;;;;;;;;;;;;5090479;28;19977;-63
2023/07/09 12:00:00;;;;;;;;;;;;;;;;;;5088202;28;19994;-63
2023/07/09 12:02:26;;;;;;;;;;;;;;;;;;5086254;28;19928;-63
2023/07/09 12:04:52;;;;;;;;;;;;;;;;;;5089374;28;19920;-63
2023/07/09 12:07:18;;;;;;;;;;;;;;;;;;5084483;28;19924;-63
2023/07/09 12:09:44;;;;;;;;;;;;;;;;;;5087293;28;19927;-63
2023/07/09 12:12:10;;;;;;;;;;;;;;;;;;5091554;28;19936;-63
2023/07/09 12:14:36;;;;;;;;;;;;;;;;;;5086698;28;19959;-63
2023/07/09 12:17:02;;;;;;;;;;;;;;;;;;5091790;28;20392;-63
2023/07/09 12:19:28;;;;;;;;;;;;;;;;;;5085615;28;19927;-63
2023/07/09 12:21:54;;;;;;;;;;;;;;;;;;5086454;28;19980;-63
2023/07/09 12:24:20;;;;;;;;;;;;;;;;;;5087696;28;19928;-63
2023/07/09 12:26:46;;;;;;;;;;;;;;;;;;5083948;28;20016;-63
2023/07/09 12:29:12;;;;;;;;;;;;;;;;;;5079629;28;19920;-63
2023/07/09 12:31:38;;;;;;;;;;;;;;;;;;5083739;28;19923;-63
2023/07/09 12:34:04;;;;;;;;;;;;;;;;;;5080102;28;19924;-63
2023/07/09 12:36:30;;;;;;;;;;;;;;;;;;5081583;28;22169;-63
2023/07/09 12:38:55;;;;;;;;;;;;;;;;;;5083427;28;19967;-63
2023/07/09 12:41:21;;;;;;;;;;;;;;;;;;5087551;28;19920;-63
2023/07/09 12:43:47;;;;;;;;;;;;;;;;;;5086225;28;19923;-63
2023/07/09 12:46:13;;;;;;;;;;;;;;;;;;5083234;28;19926;-63
2023/07/09 12:48:39;;;;;;;;;;;;;;;;;;5083021;28;19931;-63
2023/07/09 12:51:05;;;;;;;;;;;;;;;;;;5087513;28;20281;-63
2023/07/09 12:53:31;;;;;;;;;;;;;;;;;;5079443;28;19924;-63
2023/07/09 12:55:57;;;;;;;;;;;;;;;;;;5090121;28;20231;-63
2023/07/09 12:58:22;;;;;;;;;;;;;;;;;;5089732;28;19927;-63
2023/07/09 13:00:51;;;;;;;;;;;;;;;;;;5087749;28;19926;-63
2023/07/09 13:03:17;;;;;;;;;;;;;;;;;;5068937;28;19920;-63
2023/07/09 13:05:43;;;;;;;;;;;;;;;;;;5085403;28;19928;-63
2023/07/09 13:08:09;;;;;;;;;;;;;;;;;;5085530;28;19924;-63
2023/07/09 13:10:35;;;;;;;;;;;;;;;;;;5080886;28;19935;-63
2023/07/09 13:13:01;;;;;;;;;;;;;;;;;;5085520;28;19959;-63
2023/07/09 13:15:27;;;;;;;;;;;;;;;;;;5085958;28;19930;-63
2023/07/09 13:17:52;;;;;;;;;;;;;;;;;;5086727;28;19967;-63
2023/07/09 13:20:18;;;;;;;;;;;;;;;;;;5088306;28;19959;-63
2023/07/09 13:22:44;;;;;;;;;;;;;;;;;;5087409;28;19934;-63
2023/07/09 13:25:11;;;;;;;;;;;;;;;;;;5079761;28;19967;-63
2023/07/09 13:27:37;;;;;;;;;;;;;;;;;;5087554;28;19966;-63
2023/07/09 13:30:03;;;;;;;;;;;;;;;;;;5082469;28;19964;-63
2023/07/09 13:32:29;;;;;;;;;;;;;;;;;;5087161;28;19977;-63
2023/07/09 13:34:55;;;;;;;;;;;;;;;;;;5087461;28;19924;-63
2023/07/09 13:37:21;;;;;;;;;;;;;;;;;;5078511;28;19967;-63
2023/07/09 13:39:47;;;;;;;;;;;;;;;;;;5083236;28;19924;-63
2023/07/09 13:42:13;;;;;;;;;;;;;;;;;;5083400;28;19977;-63
2023/07/09 13:44:39;;;;;;;;;;;;;;;;;;5089005;28;19924;-63
2023/07/09 13:47:05;;;;;;;;;;;;;;;;;;5089625;28;20385;-63
2023/07/09 13:49:31;;;;;;;;;;;;;;;;;;5090760;28;19928;-63
2023/07/09 13:51:57;;;;;;;;;;;;;;;;;;5090044;28;19943;-63
2023/07/09 13:54:23;;;;;;;;;;;;;;;;;;5076155;28;19943;-63
2023/07/09 13:56:49;;;;;;;;;;;;;;;;;;5087779;28;20011;-63
2023/07/09 13:59:15;;;;;;;;;;;;;;;;;;5093104;28;19923;-63
2023/07/09 14:01:41;;;;;;;;;;;;;;;;;;5091894;28;19927;-63
2023/07/09 14:04:07;;;;;;;;;;;;;;;;;;5088849;28;19964;-63
2023/07/09 14:06:33;;;;;;;;;;;;;;;;;;5091330;28;19923;-63
2023/07/09 14:08:59;;;;;;;;;;;;;;;;;;5094741;28;19939;-63
2023/07/09 14:11:24;;;;;;;;;;;;;;;;;;5080903;28;19928;-63
2023/07/09 14:13:52;;;;;;;;;;;;;;;;;;5091108;28;20476;-63
2023/07/09 14:16:19;;;;;;;;;;;;;;;;;;5081590;28;19920;-63
2023/07/09 14:18:45;;;;;;;;;;;;;;;;;;5079633;28;19924;-63
2023/07/09 14:21:11;;;;;;;;;;;;;;;;;;5086460;28;19965;-63
2023/07/09 14:23:37;;;;;;;;;;;;;;;;;;5085739;28;20278;-63
2023/07/09 14:26:03;;;;;;;;;;;;;;;;;;5091770;28;19938;-63
2023/07/09 14:28:28;;;;;;;;;;;;;;;;;;5089961;28;19970;-63
2023/07/09 14:30:54;;;;;;;;;;;;;;;;;;5080141;28;19928;-63
2023/07/09 14:33:20;;;;;;;;;;;;;;;;;;5082355;28;20606;-63
2023/07/09 14:35:46;;;;;;;;;;;;;;;;;;5072950;28;19920;-63
2023/07/09 14:38:12;;;;;;;;;;;;;;;;;;5074148;28;20300;-63
2023/07/09 14:40:38;;;;;;;;;;;;;;;;;;5081932;28;19960;-63
2023/07/09 14:43:04;;;;;;;;;;;;;;;;;;5088756;28;20007;-63
2023/07/09 14:45:31;;;;;;;;;;;;;;;;;;5087918;28;20388;-63
2023/07/09 14:47:57;;;;;;;;;;;;;;;;;;5085362;28;19999;-63
2023/07/09 14:50:23;;;;;;;;;;;;;;;;;;5083454;28;20475;-63
2023/07/09 14:52:49;;;;;;;;;;;;;;;;;;5088885;28;19928;-63
2023/07/09 14:55:15;;;;;;;;;;;;;;;;;;5079071;28;19953;-63
2023/07/09 14:57:41;;;;;;;;;;;;;;;;;;5081506;28;19921;-63
2023/07/09 15:00:09;;;;;;;;;;;;;;;;;;5076678;28;19967;-62
2023/07/09 15:02:35;;;;;;;;;;;;;;;;;;5081819;28;20350;-63
2023/07/09 15:05:02;;;;;;;;;;;;;;;;;;5083842;28;19924;-62
2023/07/09 15:07:29;;;;;;;;;;;;;;;;;;5084561;28;20050;-63
2023/07/09 15:09:56;;;;;;;;;;;;;;;;;;5084903;28;19930;-63
2023/07/09 15:12:22;;;;;;;;;;;;;;;;;;5085043;28;19935;-62
2023/07/09 15:14:47;;;;;;;;;;;;;;;;;;5089661;28;19924;-63
2023/07/09 15:17:13;;;;;;;;;;;;;;;;;;5087566;28;19943;-63
2023/07/09 15:19:39;;;;;;;;;;;;;;;;;;5083067;28;19970;-63
2023/07/09 15:22:05;;;;;;;;;;;;;;;;;;5074378;28;19928;-62
2023/07/09 15:24:31;;;;;;;;;;;;;;;;;;5083642;28;20492;-63
2023/07/09 15:26:59;;;;;;;;;;;;;;;;;;5076805;28;19924;-63
2023/07/09 15:29:25;;;;;;;;;;;;;;;;;;5080741;28;19929;-62
2023/07/09 15:31:51;;;;;;;;;;;;;;;;;;5077963;28;19928;-62
2023/07/09 15:34:17;;;;;;;;;;;;;;;;;;5084211;28;20301;-62
2023/07/09 15:36:43;;;;;;;;;;;;;;;;;;5070560;28;20030;-62
2023/07/09 15:39:09;;;;;;;;;;;;;;;;;;5086363;28;20687;-62
2023/07/09 15:41:35;;;;;;;;;;;;;;;;;;5091977;28;19931;-62
2023/07/09 15:44:01;;;;;;;;;;;;;;;;;;5091633;28;19924;-62
2023/07/09 15:46:27;;;;;;;;;;;;;;;;;;5093184;28;20373;-61
2023/07/09 15:48:53;;;;;;;;;;;;;;;;;;5085767;28;19974;-62
2023/07/09 15:51:19;;;;;;;;;;;;;;;;;;5078621;28;20350;-62
2023/07/09 15:53:45;;;;;;;;;;;;;;;;;;5090050;28;19928;-62
2023/07/09 15:56:11;;;;;;;;;;;;;;;;;;5086782;28;19924;-62
2023/07/09 15:58:37;;;;;;;;;;;;;;;;;;5089033;28;19920;-61
2023/07/09 16:01:05;;;;;;;;;;;;;;;;;;5087584;28;19939;-61
2023/07/09 16:03:31;;;;;;;;;;;;;;;;;;5088849;28;19942;-61
2023/07/09 16:05:57;;;;;;;;;;;;;;;;;;5090036;28;20417;-62
2023/07/09 16:08:23;;;;;;;;;;;;;;;;;;5090502;28;19931;-61
2023/07/09 16:10:48;;;;;;;;;;;;;;;;;;5084615;28;20399;-61
2023/07/09 16:13:14;;;;;;;;;;;;;;;;;;5091861;28;19920;-61
2023/07/09 16:15:40;;;;;;;;;;;;;;;;;;5087626;28;19931;-61
2023/07/09 16:18:06;;;;;;;;;;;;;;;;;;5070239;28;20357;-62
2023/07/09 16:20:32;;;;;;;;;;;;;;;;;;5092734;28;19985;-61
2023/07/09 16:22:58;;;;;;;;;;;;;;;;;;5088571;28;19934;-62
2023/07/09 16:25:24;;;;;;;;;;;;;;;;;;5072554;28;19924;-61
2023/07/09 16:27:50;;;;;;;;;;;;;;;;;;5089880;28;20012;-61
2023/07/09 16:30:16;;;;;;;;;;;;;;;;;;5090005;28;20018;-61
2023/07/09 16:32:42;;;;;;;;;;;;;;;;;;5089659;28;19920;-61
2023/07/09 16:35:10;;;;;;;;;;;;;;;;;;5089134;28;19928;-61
2023/07/09 16:37:36;;;;;;;;;;;;;;;;;;5089030;28;19938;-61